createdAt,value
2023-01-23T00:01:36.363Z,85.55
2023-01-23T00:04:05.265Z,85.80
2023-01-23T00:06:35.284Z,85.22
2023-01-23T00:09:03.484Z,85.32
2023-01-23T00:11:32.112Z,85.06
2023-01-23T00:14:01.611Z,84.97
2023-01-23T00:16:32.560Z,84.77
2023-01-23T00:19:01.300Z,85.28
2023-01-23T00:21:31.075Z,85.28
2023-01-23T00:24:02.726Z,84.77
2023-01-23T00:26:33.584Z,85.07
2023-01-23T00:29:02.173Z,85.47
2023-01-23T00:31:32.462Z,85.32
2023-01-23T00:34:02.180Z,85.36
2023-01-23T00:36:32.010Z,85.05
2023-01-23T00:39:01.621Z,85.35
2023-01-23T00:41:29.718Z,84.82
2023-01-23T00:43:57.839Z,84.30
2023-01-23T00:46:26.354Z,85.16
2023-01-23T00:48:54.493Z,84.43
2023-01-23T00:51:22.974Z,85.21
2023-01-23T00:53:51.411Z,85.19
2023-01-23T00:56:20.986Z,85.11
2023-01-23T00:58:49.029Z,85.24
2023-01-23T01:01:18.189Z,85.08
2023-01-23T01:03:46.996Z,85.39
2023-01-23T01:06:17.674Z,84.68
2023-01-23T01:08:45.785Z,84.33
2023-01-23T01:11:13.920Z,85.17
2023-01-23T01:13:44.523Z,84.80
2023-01-23T01:16:13.157Z,85.55
2023-01-23T01:18:41.364Z,84.90
2023-01-23T01:21:10.914Z,85.13
2023-01-23T01:23:39.990Z,84.66
2023-01-23T01:26:08.742Z,84.46
2023-01-23T01:28:38.172Z,84.85
2023-01-23T01:31:10.520Z,85.31
2023-01-23T01:33:39.225Z,84.80
2023-01-23T01:36:10.672Z,84.72
2023-01-23T01:38:39.820Z,85.26
2023-01-23T01:41:08.793Z,85.40
2023-01-23T01:43:37.774Z,85.00
2023-01-23T01:46:21.155Z,85.01
2023-01-23T01:48:55.725Z,84.02
2023-01-23T01:51:30.005Z,84.73
2023-01-23T01:54:04.676Z,83.64
2023-01-23T01:56:37.659Z,84.47
2023-01-23T01:59:07.368Z,84.98
2023-01-23T02:01:37.413Z,84.70
2023-01-23T02:04:08.972Z,84.95
2023-01-23T02:06:37.258Z,84.77
2023-01-23T02:09:12.064Z,85.15
2023-01-23T02:11:40.385Z,85.37
2023-01-23T02:14:08.778Z,85.47
2023-01-23T02:16:43.814Z,85.37
2023-01-23T02:19:25.785Z,85.15
2023-01-23T02:22:02.463Z,85.08
2023-01-23T02:24:37.162Z,84.63
2023-01-23T02:27:07.434Z,85.38
2023-01-23T02:29:44.190Z,85.36
2023-01-23T02:32:12.720Z,85.26
2023-01-23T02:34:41.311Z,84.68
2023-01-23T02:37:10.364Z,85.37
2023-01-23T02:39:39.659Z,85.08
2023-01-23T02:42:11.326Z,84.27
2023-01-23T02:44:45.808Z,85.00
2023-01-23T02:47:15.765Z,84.72
2023-01-23T02:49:44.186Z,85.33
2023-01-23T02:52:12.553Z,84.10
2023-01-23T02:54:40.889Z,84.67
2023-01-23T02:57:10.880Z,85.04
2023-01-23T02:59:57.573Z,85.33
2023-01-23T03:02:27.106Z,84.92
2023-01-23T03:04:55.492Z,83.96
2023-01-23T03:07:23.536Z,84.93
2023-01-23T03:09:51.615Z,84.91
2023-01-23T03:12:22.275Z,85.42
2023-01-23T03:14:54.293Z,84.68
2023-01-23T03:17:22.788Z,84.31
2023-01-23T03:19:51.097Z,84.12
2023-01-23T03:22:19.342Z,84.99
2023-01-23T03:24:47.376Z,85.50
2023-01-23T03:27:15.911Z,85.45
2023-01-23T03:30:07.434Z,85.44
2023-01-23T03:32:36.741Z,85.03
2023-01-23T03:35:05.178Z,84.75
2023-01-23T03:37:33.362Z,85.37
2023-01-23T03:40:20.280Z,85.28
2023-01-23T03:42:48.972Z,85.31
2023-01-23T03:45:25.844Z,85.45
2023-01-23T03:47:54.093Z,85.51
2023-01-23T03:50:22.473Z,84.96
2023-01-23T03:52:50.772Z,85.27
2023-01-23T03:55:19.329Z,85.31
2023-01-23T03:57:48.390Z,85.08
2023-01-23T04:00:20.086Z,85.57
2023-01-23T04:02:57.622Z,84.89
2023-01-23T04:05:26.004Z,84.71
2023-01-23T04:07:54.094Z,84.31
2023-01-23T04:10:22.499Z,85.11
2023-01-23T04:12:55.046Z,85.19
2023-01-23T04:15:24.060Z,85.71
2023-01-23T04:17:54.762Z,85.54
2023-01-23T04:20:26.534Z,85.50
2023-01-23T04:22:55.452Z,85.39
2023-01-23T04:25:24.068Z,84.82
2023-01-23T04:27:52.155Z,85.01
2023-01-23T04:30:21.705Z,84.68
2023-01-23T04:32:49.975Z,85.25
2023-01-23T04:35:20.133Z,85.28
2023-01-23T04:37:50.000Z,85.22
2023-01-23T04:40:18.882Z,85.45
2023-01-23T04:42:57.194Z,85.10
2023-01-23T04:45:38.075Z,85.42
2023-01-23T04:48:25.974Z,85.80
2023-01-23T04:50:54.980Z,85.62
2023-01-23T04:53:24.631Z,85.87
2023-01-23T04:55:59.362Z,85.54
2023-01-23T04:58:27.754Z,85.60
2023-01-23T05:01:03.791Z,85.08
2023-01-23T05:03:35.270Z,84.79
2023-01-23T05:06:03.631Z,84.60
2023-01-23T05:08:33.261Z,85.20
2023-01-23T05:11:14.090Z,84.80
2023-01-23T05:13:42.392Z,85.58
2023-01-23T05:16:10.739Z,84.83
2023-01-23T05:18:58.932Z,85.40
2023-01-23T05:21:27.937Z,85.57
2023-01-23T05:23:57.386Z,85.56
2023-01-23T05:26:25.997Z,85.95
2023-01-23T05:28:55.767Z,85.77
2023-01-23T05:31:24.159Z,85.17
2023-01-23T05:34:12.204Z,85.66
2023-01-23T05:36:41.397Z,86.26
2023-01-23T05:39:11.639Z,85.26
2023-01-23T05:41:39.857Z,85.71
2023-01-23T05:44:36.992Z,85.80
2023-01-23T05:47:10.759Z,85.78
2023-01-23T05:49:39.360Z,86.24
2023-01-23T05:52:07.966Z,85.69
2023-01-23T05:54:37.582Z,85.69
2023-01-23T05:57:05.896Z,85.52
2023-01-23T05:59:52.656Z,86.25
2023-01-23T06:02:39.677Z,85.93
2023-01-23T06:05:08.932Z,85.94
2023-01-23T06:07:57.049Z,85.47
2023-01-23T06:10:26.647Z,85.79
2023-01-23T06:12:54.746Z,86.13
2023-01-23T06:15:23.943Z,85.04
2023-01-23T06:17:55.511Z,85.46
2023-01-23T06:20:25.279Z,86.09
2023-01-23T06:22:53.491Z,86.04
2023-01-23T06:25:22.993Z,85.61
2023-01-23T06:27:55.338Z,85.25
2023-01-23T06:30:25.515Z,85.61
2023-01-23T06:32:53.749Z,85.70
2023-01-23T06:35:28.491Z,85.52
2023-01-23T06:37:56.837Z,85.76
2023-01-23T06:40:25.710Z,85.65
2023-01-23T06:43:22.856Z,86.28
2023-01-23T06:45:52.331Z,85.70
2023-01-23T06:48:20.925Z,85.71
2023-01-23T06:50:49.819Z,85.61
2023-01-23T06:53:19.181Z,86.24
2023-01-23T06:55:49.076Z,85.84
2023-01-23T06:58:18.823Z,85.59
2023-01-23T07:00:48.501Z,86.15
2023-01-23T07:03:36.689Z,85.85
2023-01-23T07:06:07.155Z,85.97
2023-01-23T07:08:36.188Z,85.40
2023-01-23T07:11:04.801Z,85.69
2023-01-23T07:13:33.672Z,85.93
2023-01-23T07:16:04.092Z,86.11
2023-01-23T07:18:33.302Z,85.69
2023-01-23T07:21:06.116Z,85.63
2023-01-23T07:23:34.840Z,85.44
2023-01-23T07:26:04.720Z,85.28
2023-01-23T07:28:34.074Z,86.02
2023-01-23T07:31:04.322Z,86.50
2023-01-23T07:33:33.201Z,86.47
2023-01-23T07:36:01.325Z,86.83
2023-01-23T07:38:29.487Z,85.94
2023-01-23T07:41:00.317Z,86.51
2023-01-23T07:43:28.790Z,86.12
2023-01-23T07:46:00.969Z,86.09
2023-01-23T07:48:30.937Z,87.02
2023-01-23T07:51:03.035Z,86.94
2023-01-23T07:53:32.084Z,86.62
2023-01-23T07:56:00.521Z,86.01
2023-01-23T07:58:28.813Z,86.07
2023-01-23T08:00:56.870Z,85.87
2023-01-23T08:03:29.295Z,86.00
2023-01-23T08:05:59.814Z,85.95
2023-01-23T08:08:27.952Z,85.48
2023-01-23T08:10:56.005Z,85.46
2023-01-23T08:13:24.260Z,85.57
2023-01-23T08:15:53.471Z,85.83
2023-01-23T08:18:21.731Z,86.03
2023-01-23T08:20:54.848Z,85.93
2023-01-23T08:23:25.717Z,85.88
2023-01-23T08:25:54.906Z,85.15
2023-01-23T08:28:23.608Z,85.63
2023-01-23T08:30:52.561Z,84.86
2023-01-23T08:33:21.425Z,85.53
2023-01-23T08:35:51.087Z,85.46
2023-01-23T08:38:20.585Z,85.06
2023-01-23T08:40:51.298Z,85.06
2023-01-23T08:43:20.727Z,85.04
2023-01-23T08:45:51.336Z,84.91
2023-01-23T08:48:20.448Z,85.63
2023-01-23T08:50:48.703Z,85.68
2023-01-23T08:53:17.746Z,85.39
2023-01-23T08:55:45.854Z,85.50
2023-01-23T08:58:15.383Z,84.74
2023-01-23T09:00:43.557Z,84.69
2023-01-23T09:03:11.674Z,85.09
2023-01-23T09:05:39.846Z,84.71
2023-01-23T09:08:07.920Z,84.97
2023-01-23T09:10:36.501Z,85.05
2023-01-23T09:13:05.296Z,84.11
2023-01-23T09:15:34.803Z,84.34
2023-01-23T09:18:02.826Z,84.20
2023-01-23T09:20:31.029Z,84.73
2023-01-23T09:22:59.102Z,84.74
2023-01-23T09:25:27.224Z,85.41
2023-01-23T09:27:55.332Z,89.09
2023-01-23T09:30:23.687Z,91.07
2023-01-23T09:32:54.802Z,91.39
2023-01-23T09:35:23.587Z,93.15
2023-01-23T09:38:00.929Z,92.88
2023-01-23T09:40:32.175Z,91.45
2023-01-23T09:43:03.955Z,92.72
2023-01-23T09:45:33.874Z,89.67
2023-01-23T09:48:14.723Z,89.05
2023-01-23T09:50:55.522Z,91.13
2023-01-23T09:53:26.937Z,89.62
2023-01-23T09:56:01.152Z,88.12
2023-01-23T09:58:36.340Z,86.62
2023-01-23T10:01:04.686Z,86.21
2023-01-23T10:03:34.247Z,84.99
2023-01-23T10:06:14.128Z,84.57
2023-01-23T10:08:58.701Z,83.90
2023-01-23T10:11:36.795Z,83.18
2023-01-23T10:14:21.105Z,82.26
2023-01-23T10:17:03.214Z,82.81
2023-01-23T10:19:48.784Z,82.63
2023-01-23T10:22:33.714Z,82.66
2023-01-23T10:25:04.924Z,81.71
2023-01-23T10:27:38.374Z,81.97
2023-01-23T10:30:17.393Z,81.47
2023-01-23T10:32:50.619Z,82.01
2023-01-23T10:35:24.982Z,82.37
2023-01-23T10:38:01.902Z,81.84
2023-01-23T10:40:47.316Z,81.50
2023-01-23T10:43:17.725Z,81.23
2023-01-23T10:45:47.376Z,81.29
2023-01-23T10:48:49.611Z,81.63
2023-01-23T10:51:33.745Z,81.95
2023-01-23T10:54:29.612Z,81.98
2023-01-23T10:57:01.260Z,82.23
2023-01-23T10:59:33.263Z,82.14
2023-01-23T11:02:20.932Z,82.38
2023-01-23T11:04:51.840Z,82.83
2023-01-23T11:07:23.417Z,82.66
2023-01-23T11:09:55.036Z,82.07
2023-01-23T11:12:24.803Z,82.49
2023-01-23T11:15:11.878Z,82.68
2023-01-23T11:17:40.577Z,82.57
2023-01-23T11:20:13.630Z,83.58
2023-01-23T11:22:43.293Z,83.05
2023-01-23T11:25:37.952Z,85.58
2023-01-23T11:28:23.484Z,87.61
2023-01-23T11:31:12.428Z,87.26
2023-01-23T11:33:47.918Z,86.30
2023-01-23T11:36:36.094Z,86.28
2023-01-23T11:39:17.776Z,88.10
2023-01-23T11:41:47.406Z,87.31
2023-01-23T11:44:19.133Z,86.63
2023-01-23T11:47:13.667Z,87.84
2023-01-23T11:50:02.417Z,88.11
2023-01-23T11:52:47.927Z,88.32
2023-01-23T11:55:42.745Z,87.49
2023-01-23T11:58:24.378Z,87.21
2023-01-23T12:01:06.875Z,87.77
2023-01-23T12:03:59.367Z,88.42
2023-01-23T12:06:40.558Z,87.61
2023-01-23T12:09:14.252Z,87.04
2023-01-23T12:11:58.460Z,86.22
2023-01-23T12:14:32.136Z,87.53
2023-01-23T12:17:13.858Z,87.16
2023-01-23T12:20:08.639Z,87.19
2023-01-23T12:22:52.106Z,86.01
2023-01-23T12:25:31.062Z,86.15
2023-01-23T12:28:07.130Z,85.86
2023-01-23T12:31:02.608Z,84.64
2023-01-23T12:34:02.934Z,84.88
2023-01-23T12:37:14.180Z,83.99
2023-01-23T12:40:08.451Z,83.57
2023-01-23T12:42:43.521Z,83.23
2023-01-23T12:45:21.838Z,83.29
2023-01-23T12:47:56.667Z,83.12
2023-01-23T12:50:38.686Z,83.25
2023-01-23T12:53:11.008Z,82.90
2023-01-23T12:55:44.419Z,82.74
2023-01-23T12:58:17.262Z,83.26
2023-01-23T13:00:56.046Z,83.59
2023-01-23T13:03:46.115Z,83.80
2023-01-23T13:06:47.277Z,83.44
2023-01-23T13:09:25.822Z,83.02
2023-01-23T13:12:11.613Z,82.19
2023-01-23T13:15:06.840Z,82.65
2023-01-23T13:17:39.130Z,83.41
2023-01-23T13:20:48.449Z,82.85
2023-01-23T13:23:29.687Z,83.79
2023-01-23T13:26:30.016Z,83.83
2023-01-23T13:29:02.325Z,83.60
2023-01-23T13:31:41.447Z,83.77
2023-01-23T13:34:41.656Z,84.03
2023-01-23T13:37:47.115Z,83.21
2023-01-23T13:40:17.678Z,84.00
2023-01-23T13:42:46.314Z,83.60
2023-01-23T13:45:28.713Z,83.93
2023-01-23T14:22:38.089Z,83.97
2023-01-23T14:25:17.659Z,84.20
2023-01-23T14:27:54.439Z,83.94
2023-01-23T14:30:26.943Z,83.54
2023-01-23T14:33:18.859Z,83.82
2023-01-23T14:35:48.042Z,84.50
2023-01-23T14:38:23.265Z,84.47
2023-01-23T14:40:52.930Z,84.69
2023-01-23T14:43:23.959Z,85.16
2023-01-23T14:45:59.702Z,84.97
2023-01-23T14:48:29.202Z,85.03
2023-01-23T14:51:06.430Z,85.40
2023-01-23T14:53:34.603Z,85.42
2023-01-23T14:56:04.215Z,84.67
2023-01-23T14:58:33.998Z,84.47
2023-01-23T15:01:03.175Z,84.13
2023-01-23T15:03:43.129Z,84.64
2023-01-23T15:06:16.894Z,84.53
2023-01-23T15:08:45.400Z,85.25
2023-01-23T15:11:15.504Z,85.61
2023-01-23T15:13:54.811Z,84.99
2023-01-23T15:16:25.014Z,84.93
2023-01-23T15:18:58.619Z,85.67
2023-01-23T15:21:30.161Z,85.75
2023-01-23T15:24:04.487Z,85.65
2023-01-23T15:26:36.627Z,85.17
2023-01-23T15:29:19.419Z,85.47
2023-01-23T15:31:50.283Z,86.06
2023-01-23T15:34:25.881Z,85.59
2023-01-23T15:36:57.888Z,85.38
2023-01-23T15:39:29.560Z,86.39
2023-01-23T15:42:02.273Z,86.05
2023-01-23T15:44:32.117Z,85.56
2023-01-23T15:47:03.923Z,85.97
2023-01-23T15:49:33.639Z,85.71
2023-01-23T15:52:03.999Z,85.13
2023-01-23T15:54:34.682Z,84.98
2023-01-23T15:57:08.707Z,85.14
2023-01-23T15:59:38.094Z,85.16
2023-01-23T16:02:12.927Z,84.88
2023-01-23T16:04:47.339Z,85.21
2023-01-23T16:07:24.617Z,85.03
2023-01-23T16:09:55.179Z,85.37
2023-01-23T16:12:29.747Z,84.71
2023-01-23T16:14:58.366Z,84.86
2023-01-23T16:17:26.534Z,84.59
2023-01-23T16:19:55.657Z,84.80
2023-01-23T16:22:29.212Z,85.10
2023-01-23T16:24:58.950Z,85.35
2023-01-23T16:27:28.545Z,85.26
2023-01-23T16:29:57.402Z,85.41
2023-01-23T16:32:26.225Z,85.78
2023-01-23T16:34:54.451Z,85.30
2023-01-23T16:37:22.868Z,85.61
2023-01-23T16:39:51.115Z,85.65
2023-01-23T16:42:22.414Z,85.67
2023-01-23T16:44:52.375Z,85.25
2023-01-23T16:47:20.571Z,85.44
2023-01-23T16:49:53.748Z,84.90
2023-01-23T16:52:26.469Z,85.27
2023-01-23T16:54:55.817Z,85.49
2023-01-23T16:57:24.789Z,84.79
2023-01-23T16:59:56.523Z,85.04
2023-01-23T17:02:30.412Z,85.55
2023-01-23T17:04:58.847Z,85.79
2023-01-23T17:07:26.952Z,85.55
2023-01-23T17:09:55.018Z,86.04
2023-01-23T17:12:27.651Z,85.77
2023-01-23T17:14:58.235Z,85.77
2023-01-23T17:17:31.224Z,85.72
2023-01-23T17:20:01.347Z,86.07
2023-01-23T17:22:31.575Z,85.97
2023-01-23T17:25:00.043Z,85.55
2023-01-23T17:27:28.087Z,85.67
2023-01-23T17:29:57.597Z,86.21
2023-01-23T17:32:31.615Z,86.11
2023-01-23T17:35:02.776Z,86.29
2023-01-23T17:37:31.874Z,86.03
2023-01-23T17:40:00.024Z,85.79
2023-01-23T17:42:28.281Z,85.70
2023-01-23T17:44:57.937Z,85.21
2023-01-23T17:47:26.245Z,86.11
2023-01-23T17:49:55.502Z,86.24
2023-01-23T17:52:25.025Z,86.33
2023-01-23T17:54:54.482Z,86.63
2023-01-23T17:57:22.884Z,86.23
2023-01-23T17:59:51.042Z,86.52
2023-01-23T18:02:29.091Z,86.67
2023-01-23T18:04:57.504Z,86.58
2023-01-23T18:07:25.619Z,86.13
2023-01-23T18:09:59.424Z,86.47
2023-01-23T18:12:35.097Z,86.51
2023-01-23T18:15:12.422Z,86.53
2023-01-23T18:17:48.715Z,86.64
2023-01-23T18:20:21.745Z,86.87
2023-01-23T18:22:51.080Z,86.78
2023-01-23T18:25:21.823Z,86.55
2023-01-23T18:27:55.168Z,86.57
2023-01-23T18:30:46.097Z,86.09
2023-01-23T18:33:37.566Z,85.80
2023-01-23T18:36:19.614Z,86.56
2023-01-23T18:39:07.190Z,87.00
2023-01-23T18:41:35.815Z,86.33
2023-01-23T18:44:08.648Z,86.58
2023-01-23T18:46:37.350Z,86.61
2023-01-23T18:49:07.391Z,86.81
2023-01-23T18:51:40.631Z,86.67
2023-01-23T18:54:21.077Z,86.56
2023-01-23T18:56:58.968Z,86.62
2023-01-23T18:59:36.821Z,86.63
2023-01-23T19:02:22.152Z,86.49
2023-01-23T19:05:02.234Z,87.03
2023-01-23T19:07:30.669Z,87.09
2023-01-23T19:09:59.366Z,87.26
2023-01-23T19:12:35.826Z,88.00
2023-01-23T19:15:20.050Z,87.06
2023-01-23T19:17:52.385Z,87.94
2023-01-23T19:20:27.521Z,87.47
2023-01-23T19:23:27.493Z,87.48
2023-01-23T19:25:56.105Z,87.02
2023-01-23T19:28:24.824Z,86.69
2023-01-23T19:30:53.501Z,87.11
2023-01-23T19:33:22.187Z,86.95
2023-01-23T19:35:54.982Z,86.56
2023-01-23T19:38:23.647Z,86.91
2023-01-23T19:40:51.884Z,86.97
2023-01-23T19:43:20.325Z,86.92
2023-01-23T19:45:48.732Z,86.88
2023-01-23T19:48:16.862Z,86.56
2023-01-23T19:50:45.235Z,87.07
2023-01-23T19:53:17.046Z,86.78
2023-01-23T19:55:45.254Z,86.47
2023-01-23T19:58:13.353Z,86.72
2023-01-23T20:00:41.594Z,86.69
2023-01-23T20:03:13.841Z,86.96
2023-01-23T20:05:42.007Z,86.79
2023-01-23T20:08:10.315Z,87.04
2023-01-23T20:10:39.995Z,87.42
2023-01-23T20:13:08.800Z,87.99
2023-01-23T20:15:36.931Z,87.72
2023-01-23T20:18:05.342Z,88.07
2023-01-23T20:20:33.679Z,87.35
2023-01-23T20:23:01.806Z,86.83
2023-01-23T20:25:29.989Z,86.37
2023-01-23T20:27:59.554Z,86.42
2023-01-23T20:30:33.018Z,86.55
2023-01-23T20:33:05.397Z,86.02
2023-01-23T20:35:33.623Z,86.17
2023-01-23T20:38:01.696Z,86.26
2023-01-23T20:40:29.809Z,86.38
2023-01-23T20:42:59.266Z,86.46
2023-01-23T20:45:27.500Z,86.16
2023-01-23T20:47:58.010Z,86.46
2023-01-23T20:50:26.285Z,86.73
2023-01-23T20:53:11.413Z,86.25
2023-01-23T20:55:39.483Z,86.45
2023-01-23T20:58:26.612Z,86.26
2023-01-23T21:00:54.760Z,86.42
2023-01-23T21:03:22.819Z,86.97
2023-01-23T21:05:50.970Z,86.66
2023-01-23T21:08:19.074Z,86.63
2023-01-23T21:10:47.143Z,87.04
2023-01-23T21:13:16.742Z,86.00
2023-01-23T21:15:44.867Z,86.24
2023-01-23T21:18:13.053Z,85.80
2023-01-23T21:20:41.147Z,86.10
2023-01-23T21:23:09.368Z,85.59
2023-01-23T21:25:55.295Z,85.66
2023-01-23T21:28:39.399Z,85.46
2023-01-23T21:31:23.419Z,85.56
2023-01-23T21:33:56.889Z,85.09
2023-01-23T21:36:29.844Z,84.57
2023-01-23T21:38:58.846Z,84.57
2023-01-23T21:41:26.974Z,84.07
2023-01-23T21:44:10.039Z,84.31
2023-01-23T21:46:48.420Z,84.15
2023-01-23T21:49:16.738Z,84.39
2023-01-23T21:51:45.793Z,84.97
2023-01-23T21:54:13.985Z,85.30
2023-01-23T21:56:42.030Z,85.78
2023-01-23T21:59:12.357Z,85.45
2023-01-23T22:01:42.756Z,84.80
2023-01-23T22:04:12.808Z,84.82
2023-01-23T22:06:46.119Z,85.10
2023-01-23T22:09:23.933Z,85.22
2023-01-23T22:11:54.305Z,85.47
2023-01-23T22:14:24.102Z,85.40
2023-01-23T22:16:52.428Z,85.48
2023-01-23T22:19:25.332Z,85.04
2023-01-23T22:21:54.857Z,84.95
2023-01-23T22:24:23.086Z,85.18
2023-01-23T22:26:51.192Z,85.06
2023-01-23T22:29:19.338Z,84.76
2023-01-23T22:31:48.928Z,84.79
2023-01-23T22:34:17.115Z,85.09
2023-01-23T22:36:45.148Z,86.26
2023-01-23T22:39:16.184Z,86.01
2023-01-23T22:41:46.242Z,85.41
2023-01-23T22:44:15.129Z,85.50
2023-01-23T22:46:43.561Z,84.93
2023-01-23T22:49:13.158Z,84.32
2023-01-23T22:51:41.219Z,84.36
2023-01-23T22:54:09.562Z,84.67
2023-01-23T22:56:37.652Z,84.27
2023-01-23T22:59:05.935Z,84.39
2023-01-23T23:01:34.067Z,84.28
2023-01-23T23:04:02.309Z,84.62
2023-01-23T23:06:31.843Z,84.39
2023-01-23T23:09:00.047Z,85.19
2023-01-23T23:11:29.533Z,85.33
2023-01-23T23:13:58.801Z,86.15
2023-01-23T23:16:31.048Z,85.12
2023-01-23T23:19:01.673Z,84.82
2023-01-23T23:21:35.718Z,84.83
2023-01-23T23:24:05.503Z,84.82
2023-01-23T23:26:33.911Z,84.92
2023-01-23T23:29:02.846Z,85.20
2023-01-23T23:31:31.704Z,84.36
2023-01-23T23:34:00.073Z,85.00
2023-01-23T23:36:28.702Z,84.76
2023-01-23T23:38:58.263Z,84.97
2023-01-23T23:41:26.539Z,84.59
2023-01-23T23:43:54.723Z,84.84
2023-01-23T23:46:22.829Z,84.26
2023-01-23T23:48:51.068Z,84.12
2023-01-23T23:51:20.075Z,84.18
2023-01-23T23:53:48.347Z,84.60
2023-01-23T23:56:22.071Z,84.54
2023-01-23T23:58:50.768Z,84.46
